Nearby METAR Reports

 

EGDR - Culdrose (navy), United Kingdom
Distance from station: S 10mi, 17km
Updated: 03/02/2023 10:50
Nearby showers, Mostly cloudy
Nearby showers, Mostly cloudy
 Wind from WSW
Wind: WSW 12 mph , 19 km/h
Temperature: 10°C
Wind Chill: 7°C
Dew Point: 9°C
Humidity: 94%
Barometer: 1035 hPa
Summary: Nearby Showers
Clouds: Mostly cloudy
Visibility: 6 miles , 10 km
Cloud details: Few Clouds 244 m
Partly cloudy 457 m
Mostly cloudy 762 m
2023/02/03 10:50 EGDR 031050Z 25010KT 9999 VCSH FEW008 SCT015 BKN025 10/09 Q1035 TEMPO -DZ SCT004 RMK GRN TEMPO YLO2
EGHQ - Newquay, United Kingdom
Distance from station: NE 17mi, 27km
Updated: 03/02/2023 10:20
Mostly cloudy
Mostly cloudy
 Wind from W
Wind: W 13 mph , 20 km/h
Temperature: 9°C
Wind Chill: 6°C
Dew Point: 9°C
Humidity: 100%
Barometer: 1035 hPa
Clouds: Mostly cloudy
Visibility: 6 miles , 10 km
Cloud details: Mostly cloudy 91 m
2023/02/03 10:20 EGHQ 031020Z 26011KT 9999 BKN003 09/09 Q1035
 
EGHC - Lands End, United Kingdom
Distance from station: WSW 22mi, 35km
Updated: 03/02/2023 10:50
Few Clouds
Few Clouds
 Wind from WSW
Wind: WSW 10 mph , 17 km/h
Temperature: 10°C
Wind Chill: 8°C
Dew Point: 8°C
Humidity: 88%
Barometer: 1036 hPa
Clouds: Few Clouds
Visibility: 6 miles , 10 km
Cloud details: Few Clouds 244 m
2023/02/03 10:50 EGHC 031050Z 24009KT 210V270 9999 FEW008 10/08 Q1036